Terminal Aerodrome Forecast
Issued by NWS Wilmington, OH

Current Version | Previous Version | Text Only | Print | Product List | Glossary Off
Versions: 1 2 3 4 5 6 7 8 9 10 11 12 13 14 15

000
FTUS41 KILN 011700
TAFCMH
TAF
KCMH 011739Z 0118/0218 20005KT 5SM -SN OVC012
      TEMPO 0118/0119 1SM -SN OVC006
     FM011900 27006KT P6SM VCSH OVC018
      TEMPO 0120/0124 2SM -SN OVC008
     FM020100 29010KT P6SM OVC015
      TEMPO 0201/0203 SCT015 OVC025
     FM021300 32005KT P6SM OVC018
      TEMPO 0214/0218 SCT020=

USA.gov is the U.S. government's official web portal to all federal, state and local government web resources and services.